Time;durP1;ratioP1;P1;durP2;ratioP2;P2;SDS_P1;SDS_P2;PMS_P1;PMS_P2;Temp;Humidity;BMP_temperature;BMP_pressure;BME280_temperature;BME280_humidity;BME280_pressure;Samples;Min_cycle;Max_cycle;Signal;HPM_P1;HPM_P2
2022/04/30 00:00:57;;;;;;;17.77;10.10;;;18.50;50.40;;;;;;6279521;22;20018;-79
2022/04/30 00:03:28;;;;;;;13.77;8.37;;;18.40;49.50;;;;;;6307149;22;20014;-79
2022/04/30 00:05:57;;;;;;;11.70;7.30;;;18.20;50.50;;;;;;6307636;22;20229;-79
2022/04/30 00:08:23;;;;;;;7.85;5.97;;;18.20;50.90;;;;;;6307427;22;20183;-80
2022/04/30 00:10:50;;;;;;;9.75;7.25;;;18.20;50.50;;;;;;6306457;22;20010;-80
2022/04/30 00:13:17;;;;;;;8.27;5.82;;;18.10;50.60;;;;;;6306337;22;20007;-79
2022/04/30 00:15:43;;;;;;;10.13;6.05;;;18.10;50.80;;;;;;6306616;22;20004;-79
2022/04/30 00:18:10;;;;;;;9.20;5.40;;;18.20;50.70;;;;;;6279432;22;19999;-80
2022/04/30 00:20:37;;;;;;;6.03;5.20;;;18.20;50.90;;;;;;6306624;22;19999;-80
2022/04/30 00:23:04;;;;;;;8.05;5.53;;;18.00;50.70;;;;;;6306747;22;20006;-81
2022/04/30 00:25:29;;;;;;;9.60;6.13;;;17.90;51.00;;;;;;6306898;22;20045;-80
2022/04/30 00:27:55;;;;;;;9.48;5.63;;;17.80;51.60;;;;;;6306294;22;20014;-80
2022/04/30 00:30:21;;;;;;;6.32;5.53;;;17.80;51.60;;;;;;6306682;22;20007;-79
2022/04/30 00:32:48;;;;;;;9.93;6.05;;;17.70;52.10;;;;;;6279044;22;20004;-78
2022/04/30 00:35:14;;;;;;;8.65;5.88;;;17.60;52.70;;;;;;6306082;22;20075;-79
2022/04/30 00:37:40;;;;;;;9.63;6.50;;;17.60;53.10;;;;;;6307321;22;20006;-78
2022/04/30 00:40:07;;;;;;;8.05;5.63;;;17.40;52.60;;;;;;6306169;22;20027;-78
2022/04/30 00:42:33;;;;;;;8.02;5.47;;;17.60;52.20;;;;;;6306548;22;20043;-78
2022/04/30 00:44:59;;;;;;;8.10;5.40;;;17.60;52.20;;;;;;6307122;22;20003;-79
2022/04/30 00:47:26;;;;;;;12.15;6.07;;;17.70;52.10;;;;;;6306466;22;20057;-80
2022/04/30 00:49:53;;;;;;;7.90;5.80;;;17.80;52.30;;;;;;6306729;22;19995;-81
2022/04/30 00:52:21;;;;;;;8.00;5.55;;;17.90;52.00;;;;;;6279493;22;20012;-79
2022/04/30 00:54:49;;;;;;;6.53;5.28;;;17.90;52.20;;;;;;6307031;22;20482;-80
2022/04/30 00:57:21;;;;;;;9.15;5.55;;;18.00;52.10;;;;;;6305110;22;20140;-80
2022/04/30 00:59:53;;;;;;;10.43;5.20;;;18.00;51.90;;;;;;6305682;22;20313;-80
2022/04/30 01:02:20;;;;;;;10.40;4.90;;;18.00;52.10;;;;;;6305967;22;19999;-80
2022/04/30 01:04:46;;;;;;;7.93;5.18;;;18.00;52.10;;;;;;6307001;22;20428;-81
2022/04/30 01:07:12;;;;;;;7.18;5.15;;;18.00;52.30;;;;;;6304994;22;20073;-80
2022/04/30 01:09:43;;;;;;;9.68;5.57;;;18.10;52.50;;;;;;6305936;22;20004;-79
2022/04/30 01:12:10;;;;;;;10.48;5.60;;;17.90;53.30;;;;;;6305686;22;20054;-79
2022/04/30 01:14:38;;;;;;;9.68;6.80;;;17.90;54.50;;;;;;6306306;22;20046;-79
2022/04/30 01:17:06;;;;;;;8.90;4.90;;;17.70;55.90;;;;;;6305031;22;20022;-79
2022/04/30 01:19:36;;;;;;;6.93;5.32;;;17.70;54.60;;;;;;6305754;22;19999;-78
2022/04/30 01:22:08;;;;;;;9.15;6.25;;;17.70;55.50;;;;;;6305505;22;19999;-79
2022/04/30 01:24:35;;;;;;;6.20;5.10;;;17.60;56.70;;;;;;6306276;22;20500;-79
2022/04/30 01:27:04;;;;;;;7.63;4.93;;;17.70;55.90;;;;;;6305847;22;20003;-79
2022/04/30 01:29:33;;;;;;;7.50;6.05;;;17.70;56.00;;;;;;6305519;22;20003;-79
2022/04/30 01:37:35;;;;;;;6.22;5.47;;;17.60;57.60;;;;;;6305395;22;20037;-78
2022/04/30 01:40:05;;;;;;;10.10;5.10;;;17.60;57.30;;;;;;6305831;22;19999;-80
2022/04/30 01:42:44;;;;;;;6.75;5.25;;;17.50;57.90;;;;;;6278534;22;19999;-80
2022/04/30 01:45:11;;;;;;;5.18;4.53;;;17.60;57.90;;;;;;6306088;22;19999;-79
2022/04/30 01:47:39;;;;;;;8.60;6.32;;;17.50;58.40;;;;;;6305882;22;19995;-80
2022/04/30 01:50:06;;;;;;;5.18;4.32;;;17.50;60.80;;;;;;6278667;22;20003;-80
2022/04/30 01:52:31;;;;;;;5.88;4.88;;;17.40;59.20;;;;;;6305686;22;20003;-80
2022/04/30 01:54:58;;;;;;;5.47;4.35;;;17.40;59.60;;;;;;6305631;22;20007;-80
2022/04/30 01:57:26;;;;;;;5.43;4.57;;;17.50;59.50;;;;;;6278007;22;20104;-80
2022/04/30 01:59:57;;;;;;;6.75;4.93;;;17.50;60.00;;;;;;6279241;22;20383;-80
2022/04/30 02:02:26;;;;;;;4.88;4.38;;;17.50;60.40;;;;;;6305920;22;20070;-81
2022/04/30 02:04:54;;;;;;;5.25;4.35;;;17.40;60.30;;;;;;6279137;22;19999;-81
2022/04/30 02:07:21;;;;;;;5.10;3.85;;;17.40;60.60;;;;;;6305019;22;20003;-81
2022/04/30 02:09:51;;;;;;;9.02;6.13;;;17.40;60.70;;;;;;6306222;22;20090;-81
2022/04/30 02:12:17;;;;;;;5.72;4.32;;;17.40;62.90;;;;;;6278415;22;20004;-81
2022/04/30 02:14:47;;;;;;;5.03;4.40;;;17.40;62.20;;;;;;6306394;22;20460;-81
2022/04/30 02:17:15;;;;;;;5.25;4.57;;;17.40;61.70;;;;;;6305213;22;20046;-81
2022/04/30 02:22:30;;;;;;;6.18;4.45;;;17.40;62.10;;;;;;6306000;22;20014;-81
2022/04/30 02:25:00;;;;;;;4.90;4.40;;;17.40;62.00;;;;;;6306206;22;19999;-80
2022/04/30 02:27:27;;;;;;;;;;;17.40;62.20;;;;;;6306194;22;19999;-80
2022/04/30 02:29:53;;;;;;;6.15;4.50;;;17.40;62.30;;;;;;6278960;22;19898;-80
2022/04/30 02:32:18;;;;;;;4.85;4.18;;;17.40;62.20;;;;;;6304873;22;20205;-80
2022/04/30 02:34:44;;;;;;;5.35;4.10;;;17.30;62.30;;;;;;6305460;22;20061;-81
2022/04/30 02:37:14;;;;;;;6.45;4.00;;;17.30;62.20;;;;;;6305128;22;20305;-82
2022/04/30 02:39:43;;;;;;;5.10;3.60;;;17.30;62.80;;;;;;6306665;22;20019;-81
2022/04/30 02:42:11;;;;;;;4.43;3.55;;;17.20;62.60;;;;;;6306797;22;20003;-80
2022/04/30 02:44:37;;;;;;;4.03;3.63;;;17.20;62.40;;;;;;6308111;22;20007;-80
2022/04/30 02:47:03;;;;;;;3.83;3.42;;;17.20;62.50;;;;;;6307385;22;20000;-79
2022/04/30 02:49:29;;;;;;;3.85;3.42;;;17.20;62.60;;;;;;6307206;22;20416;-80
2022/04/30 02:51:54;;;;;;;3.60;3.17;;;17.20;62.20;;;;;;6307839;22;20007;-80
2022/04/30 02:54:20;;;;;;;5.22;3.85;;;17.20;62.10;;;;;;6307771;22;20078;-79
2022/04/30 02:56:46;;;;;;;3.55;3.15;;;17.20;62.10;;;;;;6307307;22;20006;-79
2022/04/30 03:01:56;;;;;;;3.80;3.25;;;17.20;62.00;;;;;;6307592;22;20018;-80
2022/04/30 03:04:21;;;;;;;4.32;3.20;;;17.10;62.00;;;;;;6307073;22;20643;-81
2022/04/30 03:06:47;;;;;;;4.45;3.53;;;17.10;62.20;;;;;;6306111;22;20052;-80
2022/04/30 03:09:13;;;;;;;3.72;3.05;;;17.00;62.00;;;;;;6279663;22;20193;-79
2022/04/30 03:11:39;;;;;;;5.43;4.18;;;17.00;61.90;;;;;;6307764;22;20022;-79
2022/04/30 03:14:05;;;;;;;5.55;3.05;;;17.00;61.90;;;;;;6307170;22;20358;-80
2022/04/30 03:22:01;;;;;;;4.20;3.15;;;17.00;61.30;;;;;;6307037;22;20456;-79
2022/04/30 03:24:29;;;;;;;5.15;3.00;;;17.10;61.10;;;;;;6307272;22;20325;-79
2022/04/30 03:26:55;;;;;;;6.07;3.50;;;17.00;61.20;;;;;;6306815;22;20025;-79
2022/04/30 03:29:21;;;;;;;3.72;2.78;;;17.00;61.00;;;;;;6307420;22;20008;-79
2022/04/30 03:31:49;;;;;;;4.65;3.17;;;16.90;60.60;;;;;;6307654;22;20448;-79
2022/04/30 03:34:15;;;;;;;4.38;3.30;;;16.80;60.10;;;;;;6306783;22;20011;-80
2022/04/30 03:36:42;;;;;;;4.35;2.90;;;16.90;59.90;;;;;;6279386;22;20426;-80
2022/04/30 03:39:09;;;;;;;3.50;3.13;;;16.90;59.70;;;;;;6307490;22;20005;-80
2022/04/30 03:41:35;;;;;;;4.90;3.22;;;16.90;59.50;;;;;;6307558;22;20041;-80
2022/04/30 03:44:02;;;;;;;3.22;2.90;;;16.90;58.90;;;;;;6280425;22;20373;-80
2022/04/30 03:46:28;;;;;;;4.22;3.17;;;16.90;58.70;;;;;;6278584;22;20003;-81
2022/04/30 03:48:56;;;;;;;3.50;3.15;;;16.90;58.50;;;;;;6279626;22;20003;-81
2022/04/30 03:51:25;;;;;;;4.47;3.55;;;16.90;58.20;;;;;;6306087;22;20011;-81
2022/04/30 03:53:53;;;;;;;4.10;3.40;;;16.90;57.70;;;;;;6307564;22;20003;-81
2022/04/30 03:56:19;;;;;;;3.97;3.13;;;16.90;57.50;;;;;;6306259;22;20322;-80
2022/04/30 03:58:47;;;;;;;5.68;2.97;;;16.80;57.30;;;;;;6307369;22;20014;-80
2022/04/30 04:01:14;;;;;;;5.25;3.58;;;16.80;57.10;;;;;;6307125;22;20072;-79
2022/04/30 04:03:41;;;;;;;5.07;3.83;;;16.80;56.90;;;;;;6307041;22;20600;-80
2022/04/30 04:06:07;;;;;;;3.80;3.40;;;16.80;56.60;;;;;;6305222;22;20031;-81
2022/04/30 04:08:34;;;;;;;7.43;4.18;;;16.80;56.60;;;;;;6306713;22;20026;-81
2022/04/30 04:11:00;;;;;;;3.15;2.80;;;16.70;55.90;;;;;;6307116;22;20029;-81
2022/04/30 04:18:55;;;;;;;4.32;3.17;;;16.70;55.90;;;;;;6307516;22;20502;-81
2022/04/30 04:21:21;;;;;;;3.80;3.15;;;16.70;56.20;;;;;;6307171;22;20010;-81
2022/04/30 04:26:31;;;;;;;5.38;3.40;;;16.70;55.90;;;;;;6306467;22;20014;-84
2022/04/30 04:28:57;;;;;;;5.60;4.10;;;16.70;55.50;;;;;;6254166;22;20011;-83
2022/04/30 04:31:22;;;;;;;3.80;3.25;;;16.70;55.40;;;;;;6306610;22;20003;-82
2022/04/30 04:33:49;;;;;;;5.03;3.17;;;16.60;55.50;;;;;;6278616;22;20077;-81
2022/04/30 04:36:16;;;;;;;3.30;2.95;;;16.60;55.70;;;;;;6279362;22;20314;-83
2022/04/30 04:38:42;;;;;;;4.75;3.72;;;16.60;55.70;;;;;;6307737;22;20006;-82
2022/04/30 04:41:08;;;;;;;5.15;3.67;;;16.60;55.60;;;;;;6306341;22;20006;-82
2022/04/30 04:43:34;;;;;;;7.30;3.95;;;16.40;55.50;;;;;;6304711;22;20003;-83
2022/04/30 04:46:03;;;;;;;5.28;3.20;;;16.30;55.80;;;;;;6306722;22;20009;-84
2022/04/30 04:48:32;;;;;;;5.20;3.40;;;16.40;56.30;;;;;;6306451;22;20003;-85
2022/04/30 04:50:59;;;;;;;3.57;3.17;;;16.50;55.70;;;;;;6279590;22;20007;-81
2022/04/30 04:53:25;;;;;;;3.65;3.20;;;16.50;55.60;;;;;;6306435;22;20390;-83
2022/04/30 04:56:14;;;;;;;4.28;3.58;;;16.50;56.20;;;;;;6307003;22;20003;-83
2022/04/30 04:58:40;;;;;;;3.43;2.93;;;16.40;55.90;;;;;;6306225;22;20022;-83
2022/04/30 05:01:15;;;;;;;5.93;3.78;;;16.50;55.90;;;;;;6306614;22;20421;-83
2022/04/30 05:03:41;;;;;;;3.55;2.92;;;16.40;55.70;;;;;;6306467;22;20003;-83
2022/04/30 05:06:06;;;;;;;5.38;3.60;;;16.40;55.80;;;;;;6306047;22;19999;-84
2022/04/30 05:08:32;;;;;;;3.83;3.03;;;16.40;56.00;;;;;;6306244;22;20024;-83
2022/04/30 05:10:58;;;;;;;5.55;3.47;;;16.20;55.90;;;;;;6306939;22;20078;-82
2022/04/30 05:13:24;;;;;;;8.57;3.63;;;16.30;56.00;;;;;;6304437;22;20029;-82
2022/04/30 05:15:49;;;;;;;3.45;3.00;;;16.30;55.70;;;;;;6305968;22;19999;-82
2022/04/30 05:18:15;;;;;;;5.30;3.90;;;16.40;55.80;;;;;;6306002;22;20070;-81
2022/04/30 05:20:41;;;;;;;4.85;3.47;;;16.40;55.20;;;;;;6306847;22;19999;-81
2022/04/30 05:23:06;;;;;;;5.97;3.50;;;16.40;55.50;;;;;;6303936;22;20070;-81
2022/04/30 05:25:32;;;;;;;6.18;3.25;;;16.50;55.60;;;;;;6305238;22;20393;-82
2022/04/30 05:27:58;;;;;;;6.05;3.67;;;16.60;55.70;;;;;;6306197;22;20007;-82
2022/04/30 05:30:24;;;;;;;4.80;3.45;;;16.60;55.50;;;;;;6305107;22;20003;-82
2022/04/30 05:32:50;;;;;;;5.32;3.50;;;16.60;55.40;;;;;;6304600;22;20003;-82
2022/04/30 05:35:17;;;;;;;3.97;3.30;;;16.70;54.70;;;;;;6304486;22;20006;-82
2022/04/30 05:37:43;;;;;;;4.10;3.00;;;16.70;54.70;;;;;;6304627;22;19996;-83
2022/04/30 05:40:09;;;;;;;4.18;3.38;;;16.70;54.60;;;;;;6304323;22;20073;-82
2022/04/30 05:42:35;;;;;;;4.60;3.45;;;16.80;54.50;;;;;;6305744;22;20067;-82
2022/04/30 05:45:01;;;;;;;4.20;2.92;;;16.80;54.20;;;;;;6306354;22;20082;-81
2022/04/30 05:47:26;;;;;;;4.75;3.83;;;16.80;54.40;;;;;;6305425;22;20003;-84
2022/04/30 05:49:52;;;;;;;7.82;4.70;;;16.80;54.40;;;;;;6278730;22;20003;-86
2022/04/30 05:52:19;;;;;;;5.38;3.83;;;16.70;53.70;;;;;;6306295;22;19999;-86
2022/04/30 05:54:46;;;;;;;4.35;3.33;;;16.60;54.20;;;;;;6306074;22;20004;-86
2022/04/30 05:57:11;;;;;;;9.73;4.60;;;16.70;54.40;;;;;;6305646;22;20002;-85
2022/04/30 05:59:37;;;;;;;13.93;4.20;;;16.70;54.40;;;;;;6305575;22;19999;-86
2022/04/30 06:02:03;;;;;;;4.38;3.08;;;16.70;55.60;;;;;;6279102;22;20365;-86
2022/04/30 06:04:29;;;;;;;6.40;3.72;;;16.80;55.20;;;;;;6306030;22;20006;-87
2022/04/30 06:06:55;;;;;;;3.90;3.00;;;16.90;54.90;;;;;;6306561;22;20117;-84
2022/04/30 06:09:21;;;;;;;4.43;3.10;;;16.90;55.10;;;;;;6305669;22;20029;-84
2022/04/30 06:11:47;;;;;;;5.80;3.47;;;17.00;54.60;;;;;;6303270;22;20003;-83
2022/04/30 06:14:13;;;;;;;4.95;3.65;;;17.10;54.60;;;;;;6276124;22;20013;-85
2022/04/30 06:16:39;;;;;;;4.97;3.63;;;17.10;53.80;;;;;;6305181;22;20030;-86
2022/04/30 06:19:04;;;;;;;4.47;3.00;;;17.10;53.90;;;;;;6304601;22;19995;-88
2022/04/30 06:21:31;;;;;;;4.55;3.40;;;17.20;54.00;;;;;;6306526;22;20425;-89
2022/04/30 06:23:57;;;;;;;3.95;3.40;;;17.20;54.20;;;;;;6305552;22;20064;-84
2022/04/30 06:26:22;;;;;;;5.78;2.65;;;17.30;54.30;;;;;;6302944;22;20011;-86
2022/04/30 06:28:48;;;;;;;7.25;3.33;;;17.30;54.40;;;;;;6305015;22;20368;-89
2022/04/30 06:31:14;;;;;;;4.55;3.03;;;17.30;54.40;;;;;;6304990;22;20410;-85
2022/04/30 06:33:39;;;;;;;4.15;2.90;;;17.30;54.60;;;;;;6305673;22;20008;-90
2022/04/30 06:36:05;;;;;;;4.03;2.63;;;17.30;54.80;;;;;;6305032;22;20003;-89
2022/04/30 06:38:32;;;;;;;3.78;2.90;;;17.40;54.00;;;;;;6305336;22;20002;-82
2022/04/30 06:40:58;;;;;;;3.47;2.88;;;17.50;54.40;;;;;;6305492;22;19996;-87
2022/04/30 06:43:24;;;;;;;5.70;2.80;;;17.50;54.30;;;;;;6305453;22;20037;-87
2022/04/30 06:45:49;;;;;;;3.45;2.78;;;17.50;54.00;;;;;;6306442;22;19999;-87
2022/04/30 06:48:15;;;;;;;8.82;3.00;;;17.50;53.80;;;;;;6280837;22;20017;-88
2022/04/30 06:50:41;;;;;;;3.55;2.85;;;17.60;53.60;;;;;;6308196;22;20006;-89
2022/04/30 06:58:42;;;;;;;4.55;2.47;;;17.80;53.20;;;;;;6308324;22;20014;-86
2022/04/30 07:03:50;;;;;;;4.70;2.47;;;17.90;52.70;;;;;;6318228;22;20015;-87
2022/04/30 07:06:16;;;;;;;4.85;2.70;;;18.00;52.70;;;;;;6281262;22;20012;-87
2022/04/30 07:08:42;;;;;;;3.72;2.67;;;18.00;52.70;;;;;;6307948;22;20027;-87
2022/04/30 07:11:08;;;;;;;3.58;2.63;;;18.10;52.30;;;;;;6307920;22;19999;-87
2022/04/30 07:13:33;;;;;;;3.53;2.97;;;18.20;52.20;;;;;;6307538;22;20045;-87
2022/04/30 07:15:59;;;;;;;2.90;2.45;;;18.20;52.20;;;;;;6307736;22;20440;-87
2022/04/30 07:18:25;;;;;;;4.38;3.10;;;18.30;52.30;;;;;;6306141;22;20003;-87
2022/04/30 07:20:53;;;;;;;4.30;2.70;;;18.40;52.40;;;;;;6307688;22;19999;-87
2022/04/30 07:23:19;;;;;;;3.08;2.30;;;18.40;52.30;;;;;;6307390;22;20027;-89
2022/04/30 07:25:44;;;;;;;4.70;2.70;;;18.50;52.70;;;;;;6308327;22;19999;-89
2022/04/30 07:28:10;;;;;;;4.50;3.05;;;18.60;52.70;;;;;;6309482;22;20073;-88
2022/04/30 07:30:36;;;;;;;3.05;2.55;;;18.70;52.60;;;;;;6309566;22;20030;-89
2022/04/30 07:33:01;;;;;;;3.00;2.40;;;18.70;52.50;;;;;;6308951;22;20008;-89
2022/04/30 07:35:27;;;;;;;4.75;2.72;;;18.80;52.50;;;;;;6309829;22;20461;-88
2022/04/30 07:37:53;;;;;;;3.85;2.92;;;18.90;52.60;;;;;;6308303;22;20004;-86
2022/04/30 07:40:19;;;;;;;3.50;2.63;;;18.90;52.40;;;;;;6305645;22;19999;-88
2022/04/30 07:42:46;;;;;;;3.55;3.00;;;19.00;52.80;;;;;;6307008;22;20002;-90
2022/04/30 07:45:12;;;;;;;3.22;2.70;;;19.10;53.20;;;;;;6307220;22;20074;-89
2022/04/30 07:47:37;;;;;;;4.53;3.08;;;19.20;52.80;;;;;;6306864;22;20030;-88
2022/04/30 07:50:04;;;;;;;4.47;2.83;;;19.20;52.50;;;;;;6280684;22;20013;-87
2022/04/30 07:52:31;;;;;;;4.03;2.58;;;19.30;52.10;;;;;;6308282;22;19995;-86
2022/04/30 07:54:57;;;;;;;5.40;4.05;;;19.30;52.60;;;;;;6307902;22;20517;-87
2022/04/30 07:57:23;;;;;;;7.97;2.97;;;19.40;51.80;;;;;;6307791;22;20002;-87
2022/04/30 07:59:49;;;;;;;3.63;2.42;;;19.50;51.80;;;;;;6306670;22;20090;-87
2022/04/30 08:02:15;;;;;;;3.72;2.53;;;19.50;51.40;;;;;;6307292;22;20442;-86
2022/04/30 08:04:43;;;;;;;5.28;2.70;;;19.50;51.00;;;;;;6307637;22;20030;-86
2022/04/30 08:07:09;;;;;;;3.55;2.22;;;19.60;51.30;;;;;;6280741;22;20417;-87
2022/04/30 08:09:35;;;;;;;3.90;2.47;;;19.80;51.70;;;;;;6308328;22;20057;-89
2022/04/30 08:12:01;;;;;;;3.60;2.38;;;19.80;51.40;;;;;;6305205;22;20007;-84
2022/04/30 08:14:27;;;;;;;2.88;2.10;;;20.00;51.20;;;;;;6307498;22;20011;-84
2022/04/30 08:16:54;;;;;;;5.82;2.80;;;20.00;50.90;;;;;;6308222;22;20003;-83
2022/04/30 08:19:20;;;;;;;4.03;2.47;;;20.10;49.20;;;;;;6280544;22;20000;-84
2022/04/30 08:21:48;;;;;;;6.97;2.85;;;20.30;49.70;;;;;;6280801;22;20003;-84
2022/04/30 08:24:15;;;;;;;3.38;2.80;;;20.30;48.60;;;;;;6307070;22;20053;-84
2022/04/30 08:26:41;;;;;;;3.03;2.35;;;20.40;48.10;;;;;;6308131;22;20366;-86
2022/04/30 08:29:07;;;;;;;5.10;2.50;;;20.50;48.70;;;;;;6279266;22;20013;-85
2022/04/30 08:31:33;;;;;;;3.33;2.20;;;20.50;48.60;;;;;;6280117;22;20034;-86
2022/04/30 08:33:59;;;;;;;3.10;2.40;;;20.60;48.40;;;;;;6279688;22;20098;-86
2022/04/30 08:36:26;;;;;;;4.50;1.85;;;20.70;47.20;;;;;;6280653;22;20027;-84
2022/04/30 08:38:52;;;;;;;2.75;1.80;;;20.80;46.30;;;;;;6280152;22;19999;-86
2022/04/30 08:41:18;;;;;;;1.98;1.77;;;20.80;46.60;;;;;;6280377;22;20192;-84
2022/04/30 08:43:48;;;;;;;2.30;2.08;;;20.90;45.60;;;;;;6279749;22;20003;-85
2022/04/30 08:46:17;;;;;;;;;;;20.90;44.20;;;;;;6280399;22;20007;-85
2022/04/30 08:48:45;;;;;;;2.22;1.83;;;21.00;46.00;;;;;;6307250;22;20221;-85
2022/04/30 08:51:11;;;;;;;2.38;1.75;;;21.10;46.40;;;;;;6279997;22;20003;-85
2022/04/30 08:53:37;;;;;;;3.45;2.38;;;21.20;46.00;;;;;;6279600;22;20030;-86
2022/04/30 08:56:07;;;;;;;2.70;2.30;;;21.30;45.80;;;;;;6307708;22;20003;-85
2022/04/30 08:58:33;;;;;;;3.35;1.90;;;21.40;45.50;;;;;;6280182;22;20007;-83
2022/04/30 09:01:02;;;;;;;5.38;2.17;;;21.60;45.20;;;;;;6308250;22;20072;-83
2022/04/30 09:03:34;;;;;;;2.65;1.70;;;21.70;44.60;;;;;;6280462;22;20082;-84
2022/04/30 09:06:00;;;;;;;2.00;1.65;;;21.80;44.00;;;;;;6317427;22;20010;-86
2022/04/30 09:08:26;;;;;;;2.65;1.60;;;21.80;42.20;;;;;;6317400;22;20003;-84
2022/04/30 09:11:03;;;;;;;3.70;1.80;;;21.90;42.50;;;;;;6280810;22;20007;-84
2022/04/30 09:13:29;;;;;;;2.78;1.70;;;22.10;42.40;;;;;;6279084;22;20007;-85
2022/04/30 09:15:56;;;;;;;3.03;1.50;;;22.20;40.60;;;;;;6306274;22;20006;-84
2022/04/30 09:18:21;;;;;;;5.85;2.10;;;22.20;37.40;;;;;;6304183;22;19995;-85
2022/04/30 09:20:54;;;;;;;2.97;1.48;;;22.30;39.00;;;;;;6305629;22;20017;-86
2022/04/30 09:23:36;;;;;;;2.28;1.30;;;22.40;39.50;;;;;;6306137;22;20057;-86
2022/04/30 09:26:06;;;;;;;1.73;1.27;;;22.40;39.20;;;;;;6280114;22;20007;-84
2022/04/30 09:28:36;;;;;;;2.72;1.60;;;22.50;38.80;;;;;;6306176;22;20003;-86
2022/04/30 09:31:11;;;;;;;2.67;1.42;;;22.60;38.10;;;;;;6306734;22;20036;-81
2022/04/30 09:33:44;;;;;;;2.15;1.42;;;22.70;38.00;;;;;;6279215;22;20053;-85
2022/04/30 09:38:54;;;;;;;2.08;1.50;;;22.80;35.80;;;;;;6306096;22;20469;-89
2022/04/30 09:41:25;;;;;;;1.48;1.25;;;22.90;35.00;;;;;;6307586;22;20021;-90
2022/04/30 09:44:05;;;;;;;3.15;1.60;;;22.90;35.50;;;;;;6307058;22;20327;-92
2022/04/30 09:46:39;;;;;;;2.08;1.50;;;23.00;33.70;;;;;;6307949;22;20027;-89
2022/04/30 09:54:38;;;;;;;2.42;1.30;;;23.40;34.20;;;;;;6308343;22;20061;-94
2022/04/30 09:57:07;;;;;;;2.95;1.55;;;23.40;34.50;;;;;;6308333;22;20398;-87
2022/04/30 09:59:35;;;;;;;1.80;1.35;;;23.50;35.10;;;;;;6306931;22;20061;-91
2022/04/30 10:02:06;;;;;;;2.92;1.70;;;23.60;35.40;;;;;;6307963;22;20066;-88
2022/04/30 10:04:35;;;;;;;1.92;1.50;;;23.80;35.40;;;;;;6308118;22;20006;-89
2022/04/30 10:07:03;;;;;;;3.85;1.65;;;23.90;35.10;;;;;;6307782;22;20003;-95
2022/04/30 10:09:34;;;;;;;1.85;1.25;;;24.10;35.20;;;;;;6280619;22;20007;-92
2022/04/30 10:12:37;;;;;;;2.97;1.40;;;24.20;34.00;;;;;;6307528;22;19999;-87
2022/04/30 10:15:16;;;;;;;2.13;1.45;;;24.40;33.60;;;;;;6305691;22;20417;-87
2022/04/30 10:17:46;;;;;;;1.67;1.25;;;24.40;33.40;;;;;;6306033;22;20088;-90
2022/04/30 10:20:21;;;;;;;1.52;1.30;;;24.60;34.70;;;;;;6306519;22;20002;-93
2022/04/30 10:22:54;;;;;;;2.22;1.70;;;24.70;33.40;;;;;;6282163;22;20086;-92
2022/04/30 10:25:42;;;;;;;2.03;1.35;;;24.80;33.30;;;;;;6279869;22;20007;-88
2022/04/30 10:28:22;;;;;;;2.20;1.20;;;25.00;32.80;;;;;;6314570;22;19983;-92
2022/04/30 10:31:03;;;;;;;3.33;1.55;;;25.10;33.20;;;;;;6297735;22;20006;-88
2022/04/30 10:33:29;;;;;;;2.92;2.03;;;25.20;32.10;;;;;;6314710;22;20014;-92
2022/04/30 10:36:11;;;;;;;2.67;2.17;;;25.20;32.10;;;;;;6308620;22;20010;-87
2022/04/30 10:38:37;;;;;;;3.97;1.90;;;25.30;32.30;;;;;;6304437;22;20275;-87
2022/04/30 10:41:05;;;;;;;4.25;2.22;;;25.30;32.80;;;;;;6305312;22;19995;-88
2022/04/30 10:43:41;;;;;;;2.72;2.15;;;25.40;33.60;;;;;;6306340;22;20030;-91
2022/04/30 10:46:26;;;;;;;3.00;2.33;;;25.50;34.00;;;;;;6279215;22;20594;-90
2022/04/30 10:48:51;;;;;;;3.22;1.90;;;25.70;33.20;;;;;;6302794;22;20008;-86
2022/04/30 10:51:40;;;;;;;3.40;2.35;;;25.80;32.80;;;;;;6303587;22;20010;-89
2022/04/30 10:54:18;;;;;;;5.72;2.15;;;25.80;31.70;;;;;;6305545;22;20082;-89
2022/04/30 10:56:45;;;;;;;4.85;3.00;;;25.80;33.10;;;;;;6277556;22;19999;-89
2022/04/30 10:59:20;;;;;;;4.65;2.35;;;25.90;32.70;;;;;;6306000;22;20022;-90
2022/04/30 11:01:50;;;;;;;2.63;2.08;;;25.90;33.20;;;;;;6306520;22;19999;-90
2022/04/30 11:04:23;;;;;;;3.13;2.10;;;26.00;33.60;;;;;;6308822;22;20010;-90
2022/04/30 11:06:51;;;;;;;2.88;2.10;;;26.10;33.50;;;;;;6308992;22;20086;-90
2022/04/30 11:09:18;;;;;;;3.25;2.10;;;26.20;33.40;;;;;;6308996;22;20452;-95
2022/04/30 11:11:46;;;;;;;2.42;1.90;;;26.30;33.00;;;;;;6310367;22;20006;-94
2022/04/30 11:14:12;;;;;;;4.32;2.20;;;26.30;32.70;;;;;;6310594;22;20068;-95
2022/04/30 11:16:41;;;;;;;2.78;2.00;;;26.40;31.60;;;;;;6310299;22;20406;-95
2022/04/30 11:19:12;;;;;;;2.92;1.75;;;26.50;32.00;;;;;;6310608;22;20040;-95
2022/04/30 11:21:53;;;;;;;3.28;1.88;;;26.50;31.90;;;;;;6283278;22;20303;-95
2022/04/30 11:24:29;;;;;;;2.50;2.15;;;26.60;31.60;;;;;;6310644;22;20011;-92
2022/04/30 11:27:03;;;;;;;3.35;2.22;;;26.70;32.50;;;;;;6308362;22;20007;-85
2022/04/30 11:29:30;;;;;;;2.90;2.15;;;27.00;32.00;;;;;;6307722;22;20340;-87
2022/04/30 11:31:58;;;;;;;3.13;2.25;;;27.30;30.40;;;;;;6308134;22;20027;-85
2022/04/30 11:34:26;;;;;;;4.20;2.38;;;27.90;31.10;;;;;;6308206;22;20303;-85
2022/04/30 11:36:53;;;;;;;3.42;2.33;;;28.30;28.90;;;;;;6307546;22;20311;-92
2022/04/30 11:39:20;;;;;;;2.78;1.92;;;28.80;29.60;;;;;;6308107;22;20000;-86
2022/04/30 11:41:51;;;;;;;3.30;2.05;;;29.20;29.40;;;;;;6309473;22;20023;-94
2022/04/30 11:44:22;;;;;;;3.90;2.17;;;29.60;29.20;;;;;;6306597;22;20346;-91
2022/04/30 11:46:53;;;;;;;2.67;1.90;;;30.10;28.40;;;;;;6308392;22;20003;-91
2022/04/30 11:49:24;;;;;;;4.50;2.38;;;30.30;28.30;;;;;;6308676;22;20010;-95
2022/04/30 11:51:51;;;;;;;3.55;2.15;;;30.60;28.40;;;;;;6282175;22;20277;-84
2022/04/30 11:54:20;;;;;;;3.55;2.33;;;30.80;27.90;;;;;;6308219;22;20409;-84
2022/04/30 11:56:47;;;;;;;2.65;1.98;;;31.00;27.10;;;;;;6306494;22;20026;-83
2022/04/30 11:59:13;;;;;;;2.67;1.80;;;31.20;27.10;;;;;;6306785;22;20026;-82
2022/04/30 12:01:39;;;;;;;2.25;1.58;;;31.40;27.60;;;;;;6306579;22;19999;-82
2022/04/30 12:04:09;;;;;;;2.78;2.20;;;31.60;27.50;;;;;;6278542;22;20033;-82
2022/04/30 12:06:38;;;;;;;;;;;31.80;26.40;;;;;;6307338;22;20027;-84
2022/04/30 12:09:20;;;;;;;3.15;2.03;;;31.90;26.60;;;;;;6306329;22;19972;-85
2022/04/30 12:11:51;;;;;;;3.33;2.13;;;32.10;26.10;;;;;;6310177;22;20011;-90
2022/04/30 12:14:17;;;;;;;2.83;2.00;;;32.10;25.40;;;;;;6320150;22;20003;-91
2022/04/30 12:16:46;;;;;;;2.72;2.00;;;31.90;25.60;;;;;;6328102;22;19996;-90
2022/04/30 12:25:10;;;;;;;3.40;2.17;;;32.20;25.20;;;;;;6305509;22;20057;-83
2022/04/30 12:27:40;;;;;;;4.20;2.15;;;32.40;25.10;;;;;;6307843;22;20003;-90
2022/04/30 12:30:06;;;;;;;3.75;2.30;;;32.40;25.20;;;;;;6307208;22;20206;-89
2022/04/30 12:32:35;;;;;;;2.63;1.90;;;32.60;25.00;;;;;;6279995;22;20000;-84
2022/04/30 12:35:01;;;;;;;2.60;1.90;;;32.70;25.30;;;;;;6303219;22;20019;-92
2022/04/30 12:37:34;;;;;;;3.08;2.00;;;32.80;25.30;;;;;;6306882;22;20624;-85
2022/04/30 12:40:01;;;;;;;2.60;2.05;;;33.10;24.70;;;;;;6278596;22;20503;-84
2022/04/30 12:42:27;;;;;;;3.88;2.13;;;33.20;24.40;;;;;;6306496;22;20353;-85
2022/04/30 12:44:53;;;;;;;2.75;1.85;;;33.40;24.20;;;;;;6278230;22;20015;-84
2022/04/30 12:47:19;;;;;;;4.25;2.40;;;33.60;24.00;;;;;;6278542;22;20433;-84
2022/04/30 12:49:44;;;;;;;4.05;2.00;;;33.70;23.90;;;;;;6308220;22;20048;-90
2022/04/30 12:52:10;;;;;;;2.67;1.98;;;33.90;23.90;;;;;;6308714;22;20098;-92
2022/04/30 12:54:36;;;;;;;3.13;2.13;;;34.10;23.90;;;;;;6309699;22;20405;-92
2022/04/30 12:57:07;;;;;;;2.40;1.63;;;34.20;23.50;;;;;;6304616;22;19999;-84
2022/04/30 12:59:33;;;;;;;2.45;1.73;;;34.30;23.60;;;;;;6281614;22;20027;-84
2022/04/30 13:02:00;;;;;;;3.15;2.20;;;34.30;24.00;;;;;;6278849;22;20320;-90
2022/04/30 13:04:26;;;;;;;2.17;1.90;;;34.30;23.70;;;;;;6307194;22;20017;-91
2022/04/30 13:06:52;;;;;;;2.92;1.73;;;34.40;23.20;;;;;;6306785;22;20398;-84
2022/04/30 13:14:45;;;;;;;2.47;1.83;;;34.40;23.50;;;;;;6305555;22;20105;-83
2022/04/30 13:17:11;;;;;;;4.95;2.05;;;34.40;23.50;;;;;;6306374;22;20417;-82
2022/04/30 13:19:39;;;;;;;2.95;1.70;;;34.40;23.80;;;;;;6305734;22;19999;-82
2022/04/30 13:22:06;;;;;;;2.70;1.65;;;34.10;23.70;;;;;;6306501;22;20074;-82
2022/04/30 13:24:33;;;;;;;3.45;2.10;;;33.90;24.00;;;;;;6305054;22;20011;-82
2022/04/30 13:26:59;;;;;;;2.47;1.85;;;33.60;23.40;;;;;;6305702;22;20007;-81
2022/04/30 13:29:25;;;;;;;4.80;1.77;;;33.40;23.30;;;;;;6304655;22;20010;-82
2022/04/30 13:31:50;;;;;;;2.70;2.17;;;33.40;23.60;;;;;;6305564;22;20053;-82
2022/04/30 13:34:16;;;;;;;1.92;1.70;;;33.40;23.50;;;;;;6306369;22;20087;-82
2022/04/30 13:36:42;;;;;;;2.45;2.00;;;33.60;23.40;;;;;;6305545;22;20409;-81
2022/04/30 13:39:08;;;;;;;2.50;2.13;;;33.60;23.40;;;;;;6306308;22;19996;-81
2022/04/30 13:41:34;;;;;;;2.17;1.55;;;33.80;23.40;;;;;;6305486;22;20006;-81
2022/04/30 13:43:59;;;;;;;3.00;1.60;;;33.80;23.70;;;;;;6279494;22;20031;-81